sensor_id;sensor_type;location;lat;lon;timestamp;P1;durP1;ratioP1;P2;durP2;ratioP2
68985;SDS011;56035;37.534;-122.308;2023-05-07T00:00:47;1.92;;;1.00;;
68985;SDS011;56035;37.534;-122.308;2023-05-07T00:03:13;4.60;;;1.27;;
68985;SDS011;56035;37.534;-122.308;2023-05-07T00:05:39;3.70;;;1.55;;
68985;SDS011;56035;37.534;-122.308;2023-05-07T00:08:06;3.15;;;1.20;;
68985;SDS011;56035;37.534;-122.308;2023-05-07T00:10:33;3.58;;;1.48;;
68985;SDS011;56035;37.534;-122.308;2023-05-07T00:12:59;3.92;;;1.20;;
68985;SDS011;56035;37.534;-122.308;2023-05-07T00:15:25;4.35;;;1.30;;
68985;SDS011;56035;37.534;-122.308;2023-05-07T00:17:51;3.35;;;1.50;;
68985;SDS011;56035;37.534;-122.308;2023-05-07T00:20:18;5.10;;;1.55;;
68985;SDS011;56035;37.534;-122.308;2023-05-07T00:22:45;5.28;;;1.50;;
68985;SDS011;56035;37.534;-122.308;2023-05-07T00:25:11;4.10;;;1.45;;
68985;SDS011;56035;37.534;-122.308;2023-05-07T00:27:37;5.13;;;1.60;;
68985;SDS011;56035;37.534;-122.308;2023-05-07T00:30:03;3.55;;;1.20;;
68985;SDS011;56035;37.534;-122.308;2023-05-07T00:32:30;5.25;;;1.67;;
68985;SDS011;56035;37.534;-122.308;2023-05-07T00:34:56;6.32;;;1.83;;
68985;SDS011;56035;37.534;-122.308;2023-05-07T00:37:22;6.18;;;1.55;;
68985;SDS011;56035;37.534;-122.308;2023-05-07T00:39:48;4.82;;;1.42;;
68985;SDS011;56035;37.534;-122.308;2023-05-07T00:42:15;4.80;;;1.20;;
68985;SDS011;56035;37.534;-122.308;2023-05-07T00:44:41;3.92;;;1.40;;
68985;SDS011;56035;37.534;-122.308;2023-05-07T00:47:07;6.82;;;1.88;;
68985;SDS011;56035;37.534;-122.308;2023-05-07T00:49:43;4.70;;;1.55;;
68985;SDS011;56035;37.534;-122.308;2023-05-07T00:52:11;3.80;;;1.40;;
68985;SDS011;56035;37.534;-122.308;2023-05-07T00:54:41;4.63;;;1.30;;
68985;SDS011;56035;37.534;-122.308;2023-05-07T00:57:08;3.22;;;1.30;;
68985;SDS011;56035;37.534;-122.308;2023-05-07T00:59:38;4.60;;;1.27;;
68985;SDS011;56035;37.534;-122.308;2023-05-07T01:02:06;4.97;;;1.85;;
68985;SDS011;56035;37.534;-122.308;2023-05-07T01:04:32;3.47;;;1.53;;
68985;SDS011;56035;37.534;-122.308;2023-05-07T01:06:59;9.30;;;2.33;;
68985;SDS011;56035;37.534;-122.308;2023-05-07T01:09:27;5.27;;;1.70;;
68985;SDS011;56035;37.534;-122.308;2023-05-07T01:11:54;6.70;;;1.42;;
68985;SDS011;56035;37.534;-122.308;2023-05-07T01:14:22;4.22;;;1.58;;
68985;SDS011;56035;37.534;-122.308;2023-05-07T01:16:49;4.47;;;1.30;;
68985;SDS011;56035;37.534;-122.308;2023-05-07T01:19:18;3.37;;;1.50;;
68985;SDS011;56035;37.534;-122.308;2023-05-07T01:21:46;7.10;;;1.77;;
68985;SDS011;56035;37.534;-122.308;2023-05-07T01:24:13;4.03;;;1.30;;
68985;SDS011;56035;37.534;-122.308;2023-05-07T01:29:07;4.50;;;1.67;;
68985;SDS011;56035;37.534;-122.308;2023-05-07T01:31:33;4.55;;;1.48;;
68985;SDS011;56035;37.534;-122.308;2023-05-07T01:34:01;5.37;;;1.60;;
68985;SDS011;56035;37.534;-122.308;2023-05-07T01:36:28;4.83;;;1.60;;
68985;SDS011;56035;37.534;-122.308;2023-05-07T01:38:55;4.65;;;2.03;;
68985;SDS011;56035;37.534;-122.308;2023-05-07T01:41:23;5.20;;;1.60;;
68985;SDS011;56035;37.534;-122.308;2023-05-07T01:43:50;3.47;;;1.48;;
68985;SDS011;56035;37.534;-122.308;2023-05-07T01:46:17;3.67;;;1.47;;
68985;SDS011;56035;37.534;-122.308;2023-05-07T01:48:45;4.13;;;2.03;;
68985;SDS011;56035;37.534;-122.308;2023-05-07T01:53:38;3.87;;;1.77;;
68985;SDS011;56035;37.534;-122.308;2023-05-07T01:56:06;4.43;;;1.53;;
68985;SDS011;56035;37.534;-122.308;2023-05-07T01:58:32;4.05;;;1.73;;
68985;SDS011;56035;37.534;-122.308;2023-05-07T02:00:59;3.58;;;1.70;;
68985;SDS011;56035;37.534;-122.308;2023-05-07T02:03:25;4.22;;;1.60;;
68985;SDS011;56035;37.534;-122.308;2023-05-07T02:05:51;6.30;;;1.77;;
68985;SDS011;56035;37.534;-122.308;2023-05-07T02:08:17;4.45;;;1.92;;
68985;SDS011;56035;37.534;-122.308;2023-05-07T02:10:43;3.72;;;1.77;;
68985;SDS011;56035;37.534;-122.308;2023-05-07T02:13:10;4.60;;;1.90;;
68985;SDS011;56035;37.534;-122.308;2023-05-07T02:15:36;7.63;;;1.77;;
68985;SDS011;56035;37.534;-122.308;2023-05-07T02:18:03;5.47;;;1.77;;
68985;SDS011;56035;37.534;-122.308;2023-05-07T02:20:33;4.90;;;1.57;;
68985;SDS011;56035;37.534;-122.308;2023-05-07T02:22:59;5.45;;;2.05;;
68985;SDS011;56035;37.534;-122.308;2023-05-07T02:25:25;3.97;;;1.85;;
68985;SDS011;56035;37.534;-122.308;2023-05-07T02:27:51;5.72;;;1.70;;
68985;SDS011;56035;37.534;-122.308;2023-05-07T02:30:18;5.38;;;1.88;;
68985;SDS011;56035;37.534;-122.308;2023-05-07T02:32:46;7.50;;;1.97;;
68985;SDS011;56035;37.534;-122.308;2023-05-07T02:35:12;5.50;;;2.47;;
68985;SDS011;56035;37.534;-122.308;2023-05-07T02:37:38;3.17;;;1.63;;
68985;SDS011;56035;37.534;-122.308;2023-05-07T02:40:05;7.63;;;1.83;;
68985;SDS011;56035;37.534;-122.308;2023-05-07T02:42:31;6.22;;;2.15;;
68985;SDS011;56035;37.534;-122.308;2023-05-07T02:44:57;7.28;;;2.15;;
68985;SDS011;56035;37.534;-122.308;2023-05-07T02:47:24;3.95;;;1.42;;
68985;SDS011;56035;37.534;-122.308;2023-05-07T02:49:52;5.67;;;1.70;;
68985;SDS011;56035;37.534;-122.308;2023-05-07T02:52:19;4.30;;;1.87;;
68985;SDS011;56035;37.534;-122.308;2023-05-07T02:54:45;5.15;;;2.05;;
68985;SDS011;56035;37.534;-122.308;2023-05-07T02:57:11;6.63;;;2.22;;
68985;SDS011;56035;37.534;-122.308;2023-05-07T02:59:37;3.90;;;1.90;;
68985;SDS011;56035;37.534;-122.308;2023-05-07T03:02:03;4.63;;;2.08;;
68985;SDS011;56035;37.534;-122.308;2023-05-07T03:04:30;4.53;;;1.95;;
68985;SDS011;56035;37.534;-122.308;2023-05-07T03:06:56;3.85;;;2.25;;
68985;SDS011;56035;37.534;-122.308;2023-05-07T03:09:23;5.75;;;1.88;;
68985;SDS011;56035;37.534;-122.308;2023-05-07T03:11:49;7.20;;;2.10;;
68985;SDS011;56035;37.534;-122.308;2023-05-07T03:14:15;6.43;;;2.05;;
68985;SDS011;56035;37.534;-122.308;2023-05-07T03:16:41;7.35;;;2.60;;
68985;SDS011;56035;37.534;-122.308;2023-05-07T03:19:07;6.40;;;2.28;;
68985;SDS011;56035;37.534;-122.308;2023-05-07T03:21:34;3.85;;;1.95;;
68985;SDS011;56035;37.534;-122.308;2023-05-07T03:24:00;8.30;;;2.33;;
68985;SDS011;56035;37.534;-122.308;2023-05-07T03:26:26;5.65;;;2.50;;
68985;SDS011;56035;37.534;-122.308;2023-05-07T03:28:52;5.88;;;2.50;;
68985;SDS011;56035;37.534;-122.308;2023-05-07T03:31:18;6.50;;;2.72;;
68985;SDS011;56035;37.534;-122.308;2023-05-07T03:33:55;5.97;;;2.63;;
68985;SDS011;56035;37.534;-122.308;2023-05-07T03:36:22;6.90;;;2.47;;
68985;SDS011;56035;37.534;-122.308;2023-05-07T03:38:51;6.67;;;2.50;;
68985;SDS011;56035;37.534;-122.308;2023-05-07T03:41:17;6.30;;;2.30;;
68985;SDS011;56035;37.534;-122.308;2023-05-07T03:43:44;6.20;;;2.55;;
68985;SDS011;56035;37.534;-122.308;2023-05-07T03:46:10;7.40;;;2.58;;
68985;SDS011;56035;37.534;-122.308;2023-05-07T03:48:36;6.32;;;2.42;;
68985;SDS011;56035;37.534;-122.308;2023-05-07T03:51:02;8.55;;;2.55;;
68985;SDS011;56035;37.534;-122.308;2023-05-07T03:53:28;4.55;;;1.90;;
68985;SDS011;56035;37.534;-122.308;2023-05-07T03:55:55;8.40;;;2.38;;
68985;SDS011;56035;37.534;-122.308;2023-05-07T03:58:21;5.18;;;1.88;;
68985;SDS011;56035;37.534;-122.308;2023-05-07T04:00:47;6.97;;;2.50;;
68985;SDS011;56035;37.534;-122.308;2023-05-07T04:03:13;5.55;;;1.92;;
68985;SDS011;56035;37.534;-122.308;2023-05-07T04:05:39;3.45;;;1.80;;
68985;SDS011;56035;37.534;-122.308;2023-05-07T04:08:06;6.03;;;1.85;;
68985;SDS011;56035;37.534;-122.308;2023-05-07T04:10:32;5.22;;;2.55;;
68985;SDS011;56035;37.534;-122.308;2023-05-07T04:12:58;4.85;;;2.10;;
68985;SDS011;56035;37.534;-122.308;2023-05-07T04:15:24;6.40;;;2.20;;
68985;SDS011;56035;37.534;-122.308;2023-05-07T04:17:51;5.68;;;2.08;;
68985;SDS011;56035;37.534;-122.308;2023-05-07T04:20:17;5.05;;;2.20;;
68985;SDS011;56035;37.534;-122.308;2023-05-07T04:22:43;5.68;;;2.10;;
68985;SDS011;56035;37.534;-122.308;2023-05-07T04:25:09;4.25;;;2.20;;
68985;SDS011;56035;37.534;-122.308;2023-05-07T04:27:35;5.65;;;2.13;;
68985;SDS011;56035;37.534;-122.308;2023-05-07T04:30:03;6.17;;;2.10;;
68985;SDS011;56035;37.534;-122.308;2023-05-07T04:32:30;8.10;;;2.25;;
68985;SDS011;56035;37.534;-122.308;2023-05-07T04:34:56;4.53;;;1.90;;
68985;SDS011;56035;37.534;-122.308;2023-05-07T04:37:23;4.45;;;2.22;;
68985;SDS011;56035;37.534;-122.308;2023-05-07T04:39:49;5.63;;;2.60;;
68985;SDS011;56035;37.534;-122.308;2023-05-07T04:42:16;5.90;;;2.15;;
68985;SDS011;56035;37.534;-122.308;2023-05-07T04:44:43;5.00;;;2.00;;
68985;SDS011;56035;37.534;-122.308;2023-05-07T04:47:13;7.07;;;2.30;;
68985;SDS011;56035;37.534;-122.308;2023-05-07T04:49:39;6.10;;;2.38;;
68985;SDS011;56035;37.534;-122.308;2023-05-07T04:52:05;6.60;;;3.20;;
68985;SDS011;56035;37.534;-122.308;2023-05-07T04:54:31;5.07;;;2.60;;
68985;SDS011;56035;37.534;-122.308;2023-05-07T04:56:57;4.90;;;2.25;;
68985;SDS011;56035;37.534;-122.308;2023-05-07T04:59:23;3.80;;;2.13;;
68985;SDS011;56035;37.534;-122.308;2023-05-07T05:01:50;6.93;;;2.60;;
68985;SDS011;56035;37.534;-122.308;2023-05-07T05:04:16;7.28;;;2.38;;
68985;SDS011;56035;37.534;-122.308;2023-05-07T05:06:42;11.05;;;3.10;;
68985;SDS011;56035;37.534;-122.308;2023-05-07T05:09:08;6.80;;;2.40;;
68985;SDS011;56035;37.534;-122.308;2023-05-07T05:11:34;4.65;;;2.50;;
68985;SDS011;56035;37.534;-122.308;2023-05-07T05:14:01;3.65;;;2.20;;
68985;SDS011;56035;37.534;-122.308;2023-05-07T05:16:27;6.55;;;2.83;;
68985;SDS011;56035;37.534;-122.308;2023-05-07T05:18:53;3.50;;;2.10;;
68985;SDS011;56035;37.534;-122.308;2023-05-07T05:21:20;5.45;;;2.92;;
68985;SDS011;56035;37.534;-122.308;2023-05-07T05:23:46;5.60;;;2.10;;
68985;SDS011;56035;37.534;-122.308;2023-05-07T05:26:12;6.00;;;2.58;;
68985;SDS011;56035;37.534;-122.308;2023-05-07T05:28:39;7.15;;;2.92;;
68985;SDS011;56035;37.534;-122.308;2023-05-07T05:31:05;8.07;;;2.80;;
68985;SDS011;56035;37.534;-122.308;2023-05-07T05:33:31;7.72;;;2.70;;
68985;SDS011;56035;37.534;-122.308;2023-05-07T05:35:57;3.90;;;1.92;;
68985;SDS011;56035;37.534;-122.308;2023-05-07T05:38:23;4.65;;;2.40;;
68985;SDS011;56035;37.534;-122.308;2023-05-07T05:40:49;5.05;;;2.67;;
68985;SDS011;56035;37.534;-122.308;2023-05-07T05:43:16;4.10;;;2.35;;
68985;SDS011;56035;37.534;-122.308;2023-05-07T05:45:42;5.80;;;2.38;;
68985;SDS011;56035;37.534;-122.308;2023-05-07T05:48:08;5.35;;;2.30;;
68985;SDS011;56035;37.534;-122.308;2023-05-07T05:50:34;5.38;;;2.25;;
68985;SDS011;56035;37.534;-122.308;2023-05-07T05:53:03;5.87;;;2.23;;
68985;SDS011;56035;37.534;-122.308;2023-05-07T05:55:30;5.13;;;2.10;;
68985;SDS011;56035;37.534;-122.308;2023-05-07T05:57:58;4.37;;;2.00;;
68985;SDS011;56035;37.534;-122.308;2023-05-07T06:00:25;5.23;;;2.03;;
68985;SDS011;56035;37.534;-122.308;2023-05-07T06:02:51;4.72;;;1.60;;
68985;SDS011;56035;37.534;-122.308;2023-05-07T06:05:18;5.72;;;2.20;;
68985;SDS011;56035;37.534;-122.308;2023-05-07T06:07:44;5.47;;;2.15;;
68985;SDS011;56035;37.534;-122.308;2023-05-07T06:10:10;4.65;;;2.58;;
68985;SDS011;56035;37.534;-122.308;2023-05-07T06:12:36;4.47;;;2.53;;
68985;SDS011;56035;37.534;-122.308;2023-05-07T06:15:03;5.13;;;2.70;;
68985;SDS011;56035;37.534;-122.308;2023-05-07T06:17:29;5.28;;;2.50;;
68985;SDS011;56035;37.534;-122.308;2023-05-07T06:19:56;4.88;;;2.67;;
68985;SDS011;56035;37.534;-122.308;2023-05-07T06:22:22;5.28;;;2.90;;
68985;SDS011;56035;37.534;-122.308;2023-05-07T06:24:48;5.60;;;2.85;;
68985;SDS011;56035;37.534;-122.308;2023-05-07T06:27:14;3.60;;;2.50;;
68985;SDS011;56035;37.534;-122.308;2023-05-07T06:29:40;5.85;;;2.53;;
68985;SDS011;56035;37.534;-122.308;2023-05-07T06:32:07;5.90;;;2.95;;
68985;SDS011;56035;37.534;-122.308;2023-05-07T06:34:38;4.73;;;2.50;;
68985;SDS011;56035;37.534;-122.308;2023-05-07T06:37:05;5.47;;;2.40;;
68985;SDS011;56035;37.534;-122.308;2023-05-07T06:39:32;4.70;;;2.13;;
68985;SDS011;56035;37.534;-122.308;2023-05-07T06:41:59;4.95;;;2.45;;
68985;SDS011;56035;37.534;-122.308;2023-05-07T06:44:27;5.10;;;2.57;;
68985;SDS011;56035;37.534;-122.308;2023-05-07T06:46:53;4.78;;;2.35;;
68985;SDS011;56035;37.534;-122.308;2023-05-07T06:49:19;4.40;;;2.10;;
68985;SDS011;56035;37.534;-122.308;2023-05-07T06:51:46;3.75;;;1.83;;
68985;SDS011;56035;37.534;-122.308;2023-05-07T06:54:12;4.13;;;2.38;;
68985;SDS011;56035;37.534;-122.308;2023-05-07T06:56:38;6.00;;;1.95;;
68985;SDS011;56035;37.534;-122.308;2023-05-07T06:59:04;2.28;;;1.58;;
68985;SDS011;56035;37.534;-122.308;2023-05-07T07:01:31;5.03;;;2.10;;
68985;SDS011;56035;37.534;-122.308;2023-05-07T07:03:58;3.03;;;1.90;;
68985;SDS011;56035;37.534;-122.308;2023-05-07T07:06:24;3.50;;;1.50;;
68985;SDS011;56035;37.534;-122.308;2023-05-07T07:08:50;3.92;;;1.73;;
68985;SDS011;56035;37.534;-122.308;2023-05-07T07:11:16;3.22;;;1.80;;
68985;SDS011;56035;37.534;-122.308;2023-05-07T07:13:43;4.40;;;1.85;;
68985;SDS011;56035;37.534;-122.308;2023-05-07T07:16:09;6.93;;;2.05;;
68985;SDS011;56035;37.534;-122.308;2023-05-07T07:18:35;5.25;;;2.05;;
68985;SDS011;56035;37.534;-122.308;2023-05-07T07:21:01;3.33;;;1.98;;
68985;SDS011;56035;37.534;-122.308;2023-05-07T07:23:27;4.55;;;1.50;;
68985;SDS011;56035;37.534;-122.308;2023-05-07T07:25:53;3.40;;;1.60;;
68985;SDS011;56035;37.534;-122.308;2023-05-07T07:28:20;4.55;;;1.90;;
68985;SDS011;56035;37.534;-122.308;2023-05-07T07:30:47;3.20;;;1.70;;
68985;SDS011;56035;37.534;-122.308;2023-05-07T07:33:13;4.50;;;1.67;;
68985;SDS011;56035;37.534;-122.308;2023-05-07T07:35:40;4.78;;;1.70;;
68985;SDS011;56035;37.534;-122.308;2023-05-07T07:38:06;4.05;;;1.67;;
68985;SDS011;56035;37.534;-122.308;2023-05-07T07:40:34;4.53;;;1.73;;
68985;SDS011;56035;37.534;-122.308;2023-05-07T07:43:00;3.83;;;1.40;;
68985;SDS011;56035;37.534;-122.308;2023-05-07T07:45:27;6.38;;;1.67;;
68985;SDS011;56035;37.534;-122.308;2023-05-07T07:47:53;5.65;;;2.05;;
68985;SDS011;56035;37.534;-122.308;2023-05-07T07:50:19;4.75;;;1.65;;
68985;SDS011;56035;37.534;-122.308;2023-05-07T07:52:46;4.95;;;1.35;;
68985;SDS011;56035;37.534;-122.308;2023-05-07T07:55:12;5.88;;;2.38;;
68985;SDS011;56035;37.534;-122.308;2023-05-07T07:57:39;3.95;;;1.63;;
68985;SDS011;56035;37.534;-122.308;2023-05-07T08:00:05;3.85;;;1.98;;
68985;SDS011;56035;37.534;-122.308;2023-05-07T08:02:32;4.53;;;1.70;;
68985;SDS011;56035;37.534;-122.308;2023-05-07T08:04:58;5.03;;;1.58;;
68985;SDS011;56035;37.534;-122.308;2023-05-07T08:07:24;4.03;;;1.52;;
68985;SDS011;56035;37.534;-122.308;2023-05-07T08:09:51;5.20;;;1.58;;
68985;SDS011;56035;37.534;-122.308;2023-05-07T08:12:17;3.10;;;1.48;;
68985;SDS011;56035;37.534;-122.308;2023-05-07T08:14:43;4.15;;;1.88;;
68985;SDS011;56035;37.534;-122.308;2023-05-07T08:17:09;3.80;;;1.45;;
68985;SDS011;56035;37.534;-122.308;2023-05-07T08:19:36;3.47;;;1.63;;
68985;SDS011;56035;37.534;-122.308;2023-05-07T08:22:02;5.88;;;2.25;;
68985;SDS011;56035;37.534;-122.308;2023-05-07T08:24:30;4.27;;;1.90;;
68985;SDS011;56035;37.534;-122.308;2023-05-07T08:26:56;3.75;;;1.67;;
68985;SDS011;56035;37.534;-122.308;2023-05-07T08:29:23;3.35;;;1.88;;
68985;SDS011;56035;37.534;-122.308;2023-05-07T08:31:49;5.25;;;2.00;;
68985;SDS011;56035;37.534;-122.308;2023-05-07T08:34:15;3.70;;;2.00;;
68985;SDS011;56035;37.534;-122.308;2023-05-07T08:36:41;3.75;;;2.05;;
68985;SDS011;56035;37.534;-122.308;2023-05-07T08:39:07;7.13;;;2.60;;
68985;SDS011;56035;37.534;-122.308;2023-05-07T08:41:34;4.03;;;1.80;;
68985;SDS011;56035;37.534;-122.308;2023-05-07T08:44:00;5.38;;;2.15;;
68985;SDS011;56035;37.534;-122.308;2023-05-07T08:46:32;3.93;;;1.87;;
68985;SDS011;56035;37.534;-122.308;2023-05-07T08:48:58;4.28;;;1.75;;
68985;SDS011;56035;37.534;-122.308;2023-05-07T08:51:25;4.10;;;2.15;;
68985;SDS011;56035;37.534;-122.308;2023-05-07T08:53:52;5.50;;;2.13;;
68985;SDS011;56035;37.534;-122.308;2023-05-07T08:56:18;5.18;;;2.20;;
68985;SDS011;56035;37.534;-122.308;2023-05-07T08:58:45;5.30;;;2.30;;
68985;SDS011;56035;37.534;-122.308;2023-05-07T09:01:15;5.28;;;2.05;;
68985;SDS011;56035;37.534;-122.308;2023-05-07T09:03:45;5.37;;;2.07;;
68985;SDS011;56035;37.534;-122.308;2023-05-07T09:06:12;3.60;;;1.80;;
68985;SDS011;56035;37.534;-122.308;2023-05-07T09:08:38;4.07;;;1.83;;
68985;SDS011;56035;37.534;-122.308;2023-05-07T09:11:04;5.18;;;1.83;;
68985;SDS011;56035;37.534;-122.308;2023-05-07T09:13:31;4.63;;;1.83;;
68985;SDS011;56035;37.534;-122.308;2023-05-07T09:15:57;3.60;;;2.03;;
68985;SDS011;56035;37.534;-122.308;2023-05-07T09:18:23;3.42;;;1.90;;
68985;SDS011;56035;37.534;-122.308;2023-05-07T09:20:50;5.10;;;1.80;;
68985;SDS011;56035;37.534;-122.308;2023-05-07T09:23:16;4.78;;;2.00;;
68985;SDS011;56035;37.534;-122.308;2023-05-07T09:25:43;4.47;;;2.20;;
68985;SDS011;56035;37.534;-122.308;2023-05-07T09:28:09;3.95;;;1.83;;
68985;SDS011;56035;37.534;-122.308;2023-05-07T09:33:03;6.07;;;2.40;;
68985;SDS011;56035;37.534;-122.308;2023-05-07T09:35:30;3.93;;;2.10;;
68985;SDS011;56035;37.534;-122.308;2023-05-07T09:37:57;7.13;;;3.10;;
68985;SDS011;56035;37.534;-122.308;2023-05-07T09:40:27;5.97;;;2.00;;
68985;SDS011;56035;37.534;-122.308;2023-05-07T09:42:55;6.33;;;2.13;;
68985;SDS011;56035;37.534;-122.308;2023-05-07T09:45:22;5.28;;;2.33;;
68985;SDS011;56035;37.534;-122.308;2023-05-07T09:47:53;6.37;;;2.40;;
68985;SDS011;56035;37.534;-122.308;2023-05-07T09:50:25;4.93;;;2.70;;
68985;SDS011;56035;37.534;-122.308;2023-05-07T09:52:54;3.70;;;2.20;;
68985;SDS011;56035;37.534;-122.308;2023-05-07T09:55:21;6.13;;;2.70;;
68985;SDS011;56035;37.534;-122.308;2023-05-07T09:57:52;7.83;;;2.70;;
68985;SDS011;56035;37.534;-122.308;2023-05-07T10:00:20;5.37;;;2.67;;
68985;SDS011;56035;37.534;-122.308;2023-05-07T10:02:47;9.97;;;2.80;;
68985;SDS011;56035;37.534;-122.308;2023-05-07T10:05:17;5.70;;;2.73;;
68985;SDS011;56035;37.534;-122.308;2023-05-07T10:07:48;6.87;;;2.80;;
68985;SDS011;56035;37.534;-122.308;2023-05-07T10:10:15;9.67;;;2.90;;
68985;SDS011;56035;37.534;-122.308;2023-05-07T10:12:42;6.73;;;2.67;;
68985;SDS011;56035;37.534;-122.308;2023-05-07T10:15:09;7.32;;;3.20;;
68985;SDS011;56035;37.534;-122.308;2023-05-07T10:17:37;11.40;;;3.60;;
68985;SDS011;56035;37.534;-122.308;2023-05-07T10:20:05;10.77;;;3.37;;
68985;SDS011;56035;37.534;-122.308;2023-05-07T10:22:33;10.67;;;3.47;;
68985;SDS011;56035;37.534;-122.308;2023-05-07T10:25:16;7.67;;;3.30;;
68985;SDS011;56035;37.534;-122.308;2023-05-07T10:27:46;6.33;;;3.07;;
68985;SDS011;56035;37.534;-122.308;2023-05-07T10:33:19;5.10;;;2.60;;
68985;SDS011;56035;37.534;-122.308;2023-05-07T10:35:49;7.17;;;2.80;;
68985;SDS011;56035;37.534;-122.308;2023-05-07T10:38:16;8.73;;;2.78;;
68985;SDS011;56035;37.534;-122.308;2023-05-07T10:40:43;8.65;;;2.90;;
68985;SDS011;56035;37.534;-122.308;2023-05-07T10:45:35;4.53;;;2.50;;
68985;SDS011;56035;37.534;-122.308;2023-05-07T10:50:43;6.90;;;2.87;;
68985;SDS011;56035;37.534;-122.308;2023-05-07T10:55:47;8.60;;;2.50;;
68985;SDS011;56035;37.534;-122.308;2023-05-07T11:00:47;6.87;;;2.40;;
68985;SDS011;56035;37.534;-122.308;2023-05-07T11:03:14;5.40;;;2.60;;
68985;SDS011;56035;37.534;-122.308;2023-05-07T11:05:41;8.02;;;2.70;;
68985;SDS011;56035;37.534;-122.308;2023-05-07T11:08:08;5.68;;;2.80;;
68985;SDS011;56035;37.534;-122.308;2023-05-07T11:16:22;6.40;;;2.70;;
68985;SDS011;56035;37.534;-122.308;2023-05-07T11:18:53;7.25;;;2.70;;
68985;SDS011;56035;37.534;-122.308;2023-05-07T11:21:39;7.03;;;2.87;;
68985;SDS011;56035;37.534;-122.308;2023-05-07T11:24:10;5.37;;;2.10;;
68985;SDS011;56035;37.534;-122.308;2023-05-07T11:26:43;7.83;;;3.17;;
68985;SDS011;56035;37.534;-122.308;2023-05-07T11:29:20;6.67;;;2.60;;
68985;SDS011;56035;37.534;-122.308;2023-05-07T11:31:50;6.07;;;2.72;;
68985;SDS011;56035;37.534;-122.308;2023-05-07T11:34:21;6.37;;;2.83;;
68985;SDS011;56035;37.534;-122.308;2023-05-07T11:36:48;5.77;;;2.60;;
68985;SDS011;56035;37.534;-122.308;2023-05-07T11:41:58;6.03;;;2.57;;
68985;SDS011;56035;37.534;-122.308;2023-05-07T11:44:25;7.07;;;2.93;;
68985;SDS011;56035;37.534;-122.308;2023-05-07T11:47:04;4.43;;;3.00;;
68985;SDS011;56035;37.534;-122.308;2023-05-07T11:49:31;6.10;;;2.60;;
68985;SDS011;56035;37.534;-122.308;2023-05-07T11:51:57;5.90;;;2.90;;
68985;SDS011;56035;37.534;-122.308;2023-05-07T11:54:23;7.57;;;2.72;;
68985;SDS011;56035;37.534;-122.308;2023-05-07T11:56:50;8.25;;;3.33;;
68985;SDS011;56035;37.534;-122.308;2023-05-07T11:59:17;6.55;;;2.70;;
68985;SDS011;56035;37.534;-122.308;2023-05-07T12:04:11;7.68;;;3.10;;
68985;SDS011;56035;37.534;-122.308;2023-05-07T12:06:37;9.23;;;3.13;;
68985;SDS011;56035;37.534;-122.308;2023-05-07T12:09:04;10.52;;;2.85;;
68985;SDS011;56035;37.534;-122.308;2023-05-07T12:11:32;7.13;;;3.07;;
68985;SDS011;56035;37.534;-122.308;2023-05-07T12:13:59;7.50;;;3.63;;
68985;SDS011;56035;37.534;-122.308;2023-05-07T12:16:25;7.43;;;3.33;;
68985;SDS011;56035;37.534;-122.308;2023-05-07T12:18:52;7.33;;;3.20;;
68985;SDS011;56035;37.534;-122.308;2023-05-07T12:21:20;8.07;;;2.83;;
68985;SDS011;56035;37.534;-122.308;2023-05-07T12:23:47;6.35;;;2.90;;
68985;SDS011;56035;37.534;-122.308;2023-05-07T12:26:13;8.90;;;3.50;;
68985;SDS011;56035;37.534;-122.308;2023-05-07T12:28:39;7.68;;;3.30;;
68985;SDS011;56035;37.534;-122.308;2023-05-07T12:31:05;5.38;;;3.03;;
68985;SDS011;56035;37.534;-122.308;2023-05-07T12:33:32;7.43;;;3.20;;
68985;SDS011;56035;37.534;-122.308;2023-05-07T12:36:02;8.47;;;3.20;;
68985;SDS011;56035;37.534;-122.308;2023-05-07T12:38:38;7.63;;;3.50;;
68985;SDS011;56035;37.534;-122.308;2023-05-07T12:41:06;7.57;;;3.30;;
68985;SDS011;56035;37.534;-122.308;2023-05-07T12:43:33;7.23;;;3.50;;
68985;SDS011;56035;37.534;-122.308;2023-05-07T12:46:01;6.28;;;3.55;;
68985;SDS011;56035;37.534;-122.308;2023-05-07T12:48:29;8.27;;;3.50;;
68985;SDS011;56035;37.534;-122.308;2023-05-07T12:50:56;6.97;;;2.42;;
68985;SDS011;56035;37.534;-122.308;2023-05-07T12:53:25;7.73;;;3.57;;
68985;SDS011;56035;37.534;-122.308;2023-05-07T12:55:56;10.00;;;3.13;;
68985;SDS011;56035;37.534;-122.308;2023-05-07T12:58:27;7.67;;;3.83;;
68985;SDS011;56035;37.534;-122.308;2023-05-07T13:00:55;8.60;;;4.07;;
68985;SDS011;56035;37.534;-122.308;2023-05-07T13:03:25;9.67;;;3.73;;
68985;SDS011;56035;37.534;-122.308;2023-05-07T13:05:54;8.57;;;3.37;;
68985;SDS011;56035;37.534;-122.308;2023-05-07T13:08:35;7.43;;;3.90;;
68985;SDS011;56035;37.534;-122.308;2023-05-07T13:11:03;8.30;;;3.40;;
68985;SDS011;56035;37.534;-122.308;2023-05-07T13:13:30;6.47;;;3.57;;
68985;SDS011;56035;37.534;-122.308;2023-05-07T13:15:57;9.03;;;3.60;;
68985;SDS011;56035;37.534;-122.308;2023-05-07T13:18:24;7.57;;;3.95;;
68985;SDS011;56035;37.534;-122.308;2023-05-07T13:20:51;8.30;;;4.20;;
68985;SDS011;56035;37.534;-122.308;2023-05-07T13:25:44;6.87;;;4.10;;
68985;SDS011;56035;37.534;-122.308;2023-05-07T13:28:10;6.53;;;3.63;;
68985;SDS011;56035;37.534;-122.308;2023-05-07T13:30:37;11.15;;;4.22;;
68985;SDS011;56035;37.534;-122.308;2023-05-07T13:33:03;12.05;;;5.20;;
68985;SDS011;56035;37.534;-122.308;2023-05-07T13:35:29;7.10;;;3.90;;
68985;SDS011;56035;37.534;-122.308;2023-05-07T13:37:55;8.45;;;3.90;;
68985;SDS011;56035;37.534;-122.308;2023-05-07T13:40:22;8.45;;;3.72;;
68985;SDS011;56035;37.534;-122.308;2023-05-07T13:42:49;11.30;;;4.25;;
68985;SDS011;56035;37.534;-122.308;2023-05-07T13:45:16;10.27;;;3.87;;
68985;SDS011;56035;37.534;-122.308;2023-05-07T13:47:45;8.93;;;3.70;;
68985;SDS011;56035;37.534;-122.308;2023-05-07T13:50:14;6.80;;;3.47;;
68985;SDS011;56035;37.534;-122.308;2023-05-07T13:52:41;9.05;;;3.80;;
68985;SDS011;56035;37.534;-122.308;2023-05-07T13:55:09;9.43;;;4.10;;
68985;SDS011;56035;37.534;-122.308;2023-05-07T13:57:39;6.67;;;3.13;;
68985;SDS011;56035;37.534;-122.308;2023-05-07T14:00:05;9.38;;;3.75;;
68985;SDS011;56035;37.534;-122.308;2023-05-07T14:02:32;7.18;;;3.30;;
68985;SDS011;56035;37.534;-122.308;2023-05-07T14:04:58;6.00;;;2.85;;
68985;SDS011;56035;37.534;-122.308;2023-05-07T14:07:25;5.47;;;3.22;;
68985;SDS011;56035;37.534;-122.308;2023-05-07T14:09:51;8.05;;;3.53;;
68985;SDS011;56035;37.534;-122.308;2023-05-07T14:12:17;6.85;;;3.03;;
68985;SDS011;56035;37.534;-122.308;2023-05-07T14:14:43;5.95;;;2.97;;
68985;SDS011;56035;37.534;-122.308;2023-05-07T14:19:36;5.30;;;2.70;;
68985;SDS011;56035;37.534;-122.308;2023-05-07T14:22:03;5.30;;;3.08;;
68985;SDS011;56035;37.534;-122.308;2023-05-07T14:24:29;7.85;;;3.20;;
68985;SDS011;56035;37.534;-122.308;2023-05-07T14:26:55;4.97;;;3.22;;
68985;SDS011;56035;37.534;-122.308;2023-05-07T14:29:21;10.27;;;2.88;;
68985;SDS011;56035;37.534;-122.308;2023-05-07T14:31:48;4.63;;;2.50;;
68985;SDS011;56035;37.534;-122.308;2023-05-07T14:34:14;6.97;;;2.78;;
68985;SDS011;56035;37.534;-122.308;2023-05-07T14:36:40;5.38;;;2.03;;
68985;SDS011;56035;37.534;-122.308;2023-05-07T14:39:06;4.90;;;2.70;;
68985;SDS011;56035;37.534;-122.308;2023-05-07T14:41:32;5.63;;;2.65;;
68985;SDS011;56035;37.534;-122.308;2023-05-07T14:43:59;4.10;;;2.60;;